sensor_id;sensor_type;location;lat;lon;timestamp;P1;durP1;ratioP1;P2;durP2;ratioP2
27893;SDS011;15240;50.812;4.792;2023-11-21T00:02:20;127.70;;;40.87;;
27893;SDS011;15240;50.812;4.792;2023-11-21T00:04:46;116.27;;;40.30;;
27893;SDS011;15240;50.812;4.792;2023-11-21T00:07:12;111.80;;;39.57;;
27893;SDS011;15240;50.812;4.792;2023-11-21T00:09:39;114.77;;;41.20;;
27893;SDS011;15240;50.812;4.792;2023-11-21T00:12:06;117.97;;;39.90;;
27893;SDS011;15240;50.812;4.792;2023-11-21T00:14:35;120.07;;;39.93;;
27893;SDS011;15240;50.812;4.792;2023-11-21T00:17:02;115.30;;;39.47;;
27893;SDS011;15240;50.812;4.792;2023-11-21T00:19:28;118.30;;;41.60;;
27893;SDS011;15240;50.812;4.792;2023-11-21T00:21:54;131.90;;;40.17;;
27893;SDS011;15240;50.812;4.792;2023-11-21T00:24:20;138.40;;;42.30;;
27893;SDS011;15240;50.812;4.792;2023-11-21T00:26:46;120.80;;;39.07;;
27893;SDS011;15240;50.812;4.792;2023-11-21T00:29:13;116.80;;;40.03;;
27893;SDS011;15240;50.812;4.792;2023-11-21T00:31:42;117.47;;;40.33;;
27893;SDS011;15240;50.812;4.792;2023-11-21T00:34:08;118.37;;;39.07;;
27893;SDS011;15240;50.812;4.792;2023-11-21T00:36:34;113.97;;;39.27;;
27893;SDS011;15240;50.812;4.792;2023-11-21T00:39:00;108.40;;;38.27;;
27893;SDS011;15240;50.812;4.792;2023-11-21T00:41:28;110.20;;;38.07;;
27893;SDS011;15240;50.812;4.792;2023-11-21T00:43:55;114.53;;;38.03;;
27893;SDS011;15240;50.812;4.792;2023-11-21T00:46:21;125.10;;;39.53;;
27893;SDS011;15240;50.812;4.792;2023-11-21T00:48:49;106.87;;;38.20;;
27893;SDS011;15240;50.812;4.792;2023-11-21T00:51:15;119.67;;;39.40;;
27893;SDS011;15240;50.812;4.792;2023-11-21T00:53:41;118.03;;;37.20;;
27893;SDS011;15240;50.812;4.792;2023-11-21T00:56:07;108.67;;;37.23;;
27893;SDS011;15240;50.812;4.792;2023-11-21T00:58:34;112.80;;;36.93;;
27893;SDS011;15240;50.812;4.792;2023-11-21T01:01:00;116.90;;;37.60;;
27893;SDS011;15240;50.812;4.792;2023-11-21T01:03:27;108.33;;;36.67;;
27893;SDS011;15240;50.812;4.792;2023-11-21T01:05:54;107.70;;;36.47;;
27893;SDS011;15240;50.812;4.792;2023-11-21T01:08:20;109.10;;;35.63;;
27893;SDS011;15240;50.812;4.792;2023-11-21T01:10:46;111.97;;;36.50;;
27893;SDS011;15240;50.812;4.792;2023-11-21T01:13:14;105.27;;;35.13;;
27893;SDS011;15240;50.812;4.792;2023-11-21T01:15:40;121.50;;;35.67;;
27893;SDS011;15240;50.812;4.792;2023-11-21T01:18:06;111.97;;;35.83;;
27893;SDS011;15240;50.812;4.792;2023-11-21T01:20:33;102.30;;;33.20;;
27893;SDS011;15240;50.812;4.792;2023-11-21T01:23:00;106.80;;;33.57;;
27893;SDS011;15240;50.812;4.792;2023-11-21T01:25:26;104.07;;;32.40;;
27893;SDS011;15240;50.812;4.792;2023-11-21T01:27:52;102.13;;;32.27;;
27893;SDS011;15240;50.812;4.792;2023-11-21T01:30:18;102.17;;;32.77;;
27893;SDS011;15240;50.812;4.792;2023-11-21T01:32:44;103.63;;;33.37;;
27893;SDS011;15240;50.812;4.792;2023-11-21T01:35:10;104.07;;;33.13;;
27893;SDS011;15240;50.812;4.792;2023-11-21T01:37:38;105.93;;;31.80;;
27893;SDS011;15240;50.812;4.792;2023-11-21T01:40:04;116.63;;;33.70;;
27893;SDS011;15240;50.812;4.792;2023-11-21T01:42:35;114.73;;;33.03;;
27893;SDS011;15240;50.812;4.792;2023-11-21T01:45:01;94.20;;;31.47;;
27893;SDS011;15240;50.812;4.792;2023-11-21T01:47:30;105.60;;;33.20;;
27893;SDS011;15240;50.812;4.792;2023-11-21T01:49:56;98.07;;;31.60;;
27893;SDS011;15240;50.812;4.792;2023-11-21T01:52:22;151.33;;;34.80;;
27893;SDS011;15240;50.812;4.792;2023-11-21T01:54:48;150.17;;;35.83;;
27893;SDS011;15240;50.812;4.792;2023-11-21T01:57:14;179.57;;;36.63;;
27893;SDS011;15240;50.812;4.792;2023-11-21T01:59:41;208.20;;;36.63;;
27893;SDS011;15240;50.812;4.792;2023-11-21T02:02:08;380.23;;;39.87;;
27893;SDS011;15240;50.812;4.792;2023-11-21T02:04:35;290.33;;;39.23;;
27893;SDS011;15240;50.812;4.792;2023-11-21T02:07:02;260.43;;;38.90;;
27893;SDS011;15240;50.812;4.792;2023-11-21T02:09:31;192.40;;;35.50;;
27893;SDS011;15240;50.812;4.792;2023-11-21T02:12:03;179.00;;;34.90;;
27893;SDS011;15240;50.812;4.792;2023-11-21T02:14:29;154.10;;;33.77;;
27893;SDS011;15240;50.812;4.792;2023-11-21T02:16:57;145.10;;;34.77;;
27893;SDS011;15240;50.812;4.792;2023-11-21T02:19:23;157.63;;;35.13;;
27893;SDS011;15240;50.812;4.792;2023-11-21T02:21:53;165.03;;;36.23;;
27893;SDS011;15240;50.812;4.792;2023-11-21T02:24:22;152.80;;;34.23;;
27893;SDS011;15240;50.812;4.792;2023-11-21T02:26:49;134.77;;;33.53;;
27893;SDS011;15240;50.812;4.792;2023-11-21T02:29:20;151.40;;;33.87;;
27893;SDS011;15240;50.812;4.792;2023-11-21T02:31:53;147.53;;;32.23;;
27893;SDS011;15240;50.812;4.792;2023-11-21T02:34:19;136.40;;;35.03;;
27893;SDS011;15240;50.812;4.792;2023-11-21T02:36:46;152.67;;;36.20;;
27893;SDS011;15240;50.812;4.792;2023-11-21T02:39:14;142.87;;;33.07;;
27893;SDS011;15240;50.812;4.792;2023-11-21T02:41:41;131.80;;;33.07;;
27893;SDS011;15240;50.812;4.792;2023-11-21T02:44:07;129.87;;;32.60;;
27893;SDS011;15240;50.812;4.792;2023-11-21T02:46:35;134.93;;;31.73;;
27893;SDS011;15240;50.812;4.792;2023-11-21T02:49:01;134.60;;;33.77;;
27893;SDS011;15240;50.812;4.792;2023-11-21T02:51:27;143.13;;;33.87;;
27893;SDS011;15240;50.812;4.792;2023-11-21T02:53:54;135.17;;;33.80;;
27893;SDS011;15240;50.812;4.792;2023-11-21T02:56:23;128.87;;;31.90;;
27893;SDS011;15240;50.812;4.792;2023-11-21T02:58:50;136.47;;;34.90;;
27893;SDS011;15240;50.812;4.792;2023-11-21T03:01:16;141.53;;;32.53;;
27893;SDS011;15240;50.812;4.792;2023-11-21T03:03:42;134.97;;;33.67;;
27893;SDS011;15240;50.812;4.792;2023-11-21T03:06:09;122.63;;;33.07;;
27893;SDS011;15240;50.812;4.792;2023-11-21T03:08:35;141.77;;;33.47;;
27893;SDS011;15240;50.812;4.792;2023-11-21T03:11:01;126.47;;;32.37;;
27893;SDS011;15240;50.812;4.792;2023-11-21T03:13:30;127.60;;;33.80;;
27893;SDS011;15240;50.812;4.792;2023-11-21T03:15:56;139.50;;;33.40;;
27893;SDS011;15240;50.812;4.792;2023-11-21T03:18:22;119.30;;;30.33;;
27893;SDS011;15240;50.812;4.792;2023-11-21T03:20:48;131.60;;;31.53;;
27893;SDS011;15240;50.812;4.792;2023-11-21T03:23:14;181.93;;;35.03;;
27893;SDS011;15240;50.812;4.792;2023-11-21T03:25:40;118.13;;;33.07;;
27893;SDS011;15240;50.812;4.792;2023-11-21T03:28:06;130.70;;;34.70;;
27893;SDS011;15240;50.812;4.792;2023-11-21T03:30:33;122.97;;;32.87;;
27893;SDS011;15240;50.812;4.792;2023-11-21T03:32:59;130.23;;;33.17;;
27893;SDS011;15240;50.812;4.792;2023-11-21T03:35:25;127.30;;;33.10;;
27893;SDS011;15240;50.812;4.792;2023-11-21T03:37:52;128.63;;;32.83;;
27893;SDS011;15240;50.812;4.792;2023-11-21T03:40:19;131.77;;;32.20;;
27893;SDS011;15240;50.812;4.792;2023-11-21T03:42:46;117.50;;;32.00;;
27893;SDS011;15240;50.812;4.792;2023-11-21T03:45:13;128.90;;;32.63;;
27893;SDS011;15240;50.812;4.792;2023-11-21T03:47:40;128.90;;;32.47;;
27893;SDS011;15240;50.812;4.792;2023-11-21T03:50:06;114.30;;;33.07;;
27893;SDS011;15240;50.812;4.792;2023-11-21T03:52:34;139.17;;;32.77;;
27893;SDS011;15240;50.812;4.792;2023-11-21T03:55:00;124.27;;;31.40;;
27893;SDS011;15240;50.812;4.792;2023-11-21T03:57:26;125.23;;;32.87;;
27893;SDS011;15240;50.812;4.792;2023-11-21T03:59:55;110.23;;;32.20;;
27893;SDS011;15240;50.812;4.792;2023-11-21T04:02:21;103.80;;;31.97;;
27893;SDS011;15240;50.812;4.792;2023-11-21T04:04:47;113.37;;;33.73;;
27893;SDS011;15240;50.812;4.792;2023-11-21T04:07:13;123.47;;;34.80;;
27893;SDS011;15240;50.812;4.792;2023-11-21T04:09:39;115.60;;;35.27;;
27893;SDS011;15240;50.812;4.792;2023-11-21T04:12:06;114.80;;;34.23;;
27893;SDS011;15240;50.812;4.792;2023-11-21T04:14:34;125.87;;;37.03;;
27893;SDS011;15240;50.812;4.792;2023-11-21T04:17:00;128.47;;;35.57;;
27893;SDS011;15240;50.812;4.792;2023-11-21T04:19:26;114.57;;;34.07;;
27893;SDS011;15240;50.812;4.792;2023-11-21T04:21:52;120.77;;;34.50;;
27893;SDS011;15240;50.812;4.792;2023-11-21T04:24:18;97.43;;;32.27;;
27893;SDS011;15240;50.812;4.792;2023-11-21T04:26:45;140.37;;;35.10;;
27893;SDS011;15240;50.812;4.792;2023-11-21T04:29:11;127.63;;;34.57;;
27893;SDS011;15240;50.812;4.792;2023-11-21T04:31:37;135.17;;;36.17;;
27893;SDS011;15240;50.812;4.792;2023-11-21T04:34:03;131.00;;;34.80;;
27893;SDS011;15240;50.812;4.792;2023-11-21T04:36:30;115.70;;;34.73;;
27893;SDS011;15240;50.812;4.792;2023-11-21T04:38:56;132.00;;;35.70;;
27893;SDS011;15240;50.812;4.792;2023-11-21T04:41:22;121.37;;;34.10;;
27893;SDS011;15240;50.812;4.792;2023-11-21T04:43:48;135.93;;;36.73;;
27893;SDS011;15240;50.812;4.792;2023-11-21T04:46:14;124.73;;;33.70;;
27893;SDS011;15240;50.812;4.792;2023-11-21T04:48:40;118.27;;;34.47;;
27893;SDS011;15240;50.812;4.792;2023-11-21T04:51:07;126.57;;;34.43;;
27893;SDS011;15240;50.812;4.792;2023-11-21T04:53:33;117.23;;;34.07;;
27893;SDS011;15240;50.812;4.792;2023-11-21T04:56:00;110.23;;;36.37;;
27893;SDS011;15240;50.812;4.792;2023-11-21T04:58:26;121.73;;;34.20;;
27893;SDS011;15240;50.812;4.792;2023-11-21T05:00:52;119.80;;;33.90;;
27893;SDS011;15240;50.812;4.792;2023-11-21T05:03:18;122.13;;;33.27;;
27893;SDS011;15240;50.812;4.792;2023-11-21T05:05:46;110.60;;;31.93;;
27893;SDS011;15240;50.812;4.792;2023-11-21T05:08:12;123.77;;;34.63;;
27893;SDS011;15240;50.812;4.792;2023-11-21T05:10:38;115.33;;;34.30;;
27893;SDS011;15240;50.812;4.792;2023-11-21T05:13:04;115.40;;;32.37;;
27893;SDS011;15240;50.812;4.792;2023-11-21T05:15:35;117.77;;;31.70;;
27893;SDS011;15240;50.812;4.792;2023-11-21T05:18:01;107.17;;;30.87;;
27893;SDS011;15240;50.812;4.792;2023-11-21T05:20:28;118.67;;;33.97;;
27893;SDS011;15240;50.812;4.792;2023-11-21T05:22:54;118.83;;;33.07;;
27893;SDS011;15240;50.812;4.792;2023-11-21T05:25:20;116.43;;;32.50;;
27893;SDS011;15240;50.812;4.792;2023-11-21T05:27:46;110.53;;;31.77;;
27893;SDS011;15240;50.812;4.792;2023-11-21T05:30:13;111.80;;;33.20;;
27893;SDS011;15240;50.812;4.792;2023-11-21T05:32:39;130.60;;;33.27;;
27893;SDS011;15240;50.812;4.792;2023-11-21T05:35:09;109.20;;;31.70;;
27893;SDS011;15240;50.812;4.792;2023-11-21T05:37:40;96.07;;;30.87;;
27893;SDS011;15240;50.812;4.792;2023-11-21T05:40:06;116.30;;;33.57;;
27893;SDS011;15240;50.812;4.792;2023-11-21T05:42:33;105.70;;;30.70;;
27893;SDS011;15240;50.812;4.792;2023-11-21T05:45:00;107.97;;;32.43;;
27893;SDS011;15240;50.812;4.792;2023-11-21T05:47:40;111.40;;;31.13;;
27893;SDS011;15240;50.812;4.792;2023-11-21T05:50:06;106.47;;;32.47;;
27893;SDS011;15240;50.812;4.792;2023-11-21T05:52:36;106.33;;;31.17;;
27893;SDS011;15240;50.812;4.792;2023-11-21T05:55:02;121.57;;;33.30;;
27893;SDS011;15240;50.812;4.792;2023-11-21T05:57:30;106.10;;;31.37;;
27893;SDS011;15240;50.812;4.792;2023-11-21T05:59:56;103.67;;;31.40;;
27893;SDS011;15240;50.812;4.792;2023-11-21T06:02:22;104.83;;;32.27;;
27893;SDS011;15240;50.812;4.792;2023-11-21T06:04:48;111.57;;;32.70;;
27893;SDS011;15240;50.812;4.792;2023-11-21T06:07:15;114.77;;;33.40;;
27893;SDS011;15240;50.812;4.792;2023-11-21T06:09:41;113.40;;;31.97;;
27893;SDS011;15240;50.812;4.792;2023-11-21T06:12:07;103.43;;;30.47;;
27893;SDS011;15240;50.812;4.792;2023-11-21T06:14:33;121.57;;;33.10;;
27893;SDS011;15240;50.812;4.792;2023-11-21T06:17:00;109.37;;;32.17;;
27893;SDS011;15240;50.812;4.792;2023-11-21T06:19:26;110.73;;;31.83;;
27893;SDS011;15240;50.812;4.792;2023-11-21T06:21:52;107.97;;;32.47;;
27893;SDS011;15240;50.812;4.792;2023-11-21T06:24:18;101.13;;;31.47;;
27893;SDS011;15240;50.812;4.792;2023-11-21T06:26:46;104.50;;;30.30;;
27893;SDS011;15240;50.812;4.792;2023-11-21T06:29:13;89.90;;;27.83;;
27893;SDS011;15240;50.812;4.792;2023-11-21T06:31:40;114.70;;;29.40;;
27893;SDS011;15240;50.812;4.792;2023-11-21T06:34:06;95.63;;;29.77;;
27893;SDS011;15240;50.812;4.792;2023-11-21T06:36:34;92.90;;;28.17;;
27893;SDS011;15240;50.812;4.792;2023-11-21T06:39:00;91.63;;;26.93;;
27893;SDS011;15240;50.812;4.792;2023-11-21T06:41:26;104.10;;;27.63;;
27893;SDS011;15240;50.812;4.792;2023-11-21T06:43:52;77.03;;;25.20;;
27893;SDS011;15240;50.812;4.792;2023-11-21T06:46:18;89.00;;;26.57;;
27893;SDS011;15240;50.812;4.792;2023-11-21T06:48:45;90.03;;;26.07;;
27893;SDS011;15240;50.812;4.792;2023-11-21T06:51:11;93.67;;;26.70;;
27893;SDS011;15240;50.812;4.792;2023-11-21T06:53:38;83.47;;;25.53;;
27893;SDS011;15240;50.812;4.792;2023-11-21T06:56:04;96.13;;;27.63;;
27893;SDS011;15240;50.812;4.792;2023-11-21T06:58:32;83.70;;;25.20;;
27893;SDS011;15240;50.812;4.792;2023-11-21T07:00:58;84.60;;;25.47;;
27893;SDS011;15240;50.812;4.792;2023-11-21T07:03:24;71.37;;;24.43;;
27893;SDS011;15240;50.812;4.792;2023-11-21T07:05:51;83.17;;;24.83;;
27893;SDS011;15240;50.812;4.792;2023-11-21T07:08:17;83.63;;;24.83;;
27893;SDS011;15240;50.812;4.792;2023-11-21T07:10:43;87.50;;;24.57;;
27893;SDS011;15240;50.812;4.792;2023-11-21T07:13:09;88.13;;;24.60;;
27893;SDS011;15240;50.812;4.792;2023-11-21T07:15:37;74.10;;;23.53;;
27893;SDS011;15240;50.812;4.792;2023-11-21T07:18:03;92.10;;;23.83;;
27893;SDS011;15240;50.812;4.792;2023-11-21T07:20:32;76.77;;;23.57;;
27893;SDS011;15240;50.812;4.792;2023-11-21T07:22:58;84.07;;;23.30;;
27893;SDS011;15240;50.812;4.792;2023-11-21T07:25:25;74.30;;;23.33;;
27893;SDS011;15240;50.812;4.792;2023-11-21T07:27:51;70.80;;;22.50;;
27893;SDS011;15240;50.812;4.792;2023-11-21T07:30:18;70.30;;;21.17;;
27893;SDS011;15240;50.812;4.792;2023-11-21T07:32:44;75.97;;;22.33;;
27893;SDS011;15240;50.812;4.792;2023-11-21T07:35:13;74.87;;;21.90;;
27893;SDS011;15240;50.812;4.792;2023-11-21T07:37:40;66.80;;;20.63;;
27893;SDS011;15240;50.812;4.792;2023-11-21T07:40:06;69.23;;;22.83;;
27893;SDS011;15240;50.812;4.792;2023-11-21T07:42:33;69.60;;;22.17;;
27893;SDS011;15240;50.812;4.792;2023-11-21T07:45:00;67.67;;;22.73;;
27893;SDS011;15240;50.812;4.792;2023-11-21T07:47:27;71.23;;;22.57;;
27893;SDS011;15240;50.812;4.792;2023-11-21T07:49:53;76.33;;;21.37;;
27893;SDS011;15240;50.812;4.792;2023-11-21T07:52:21;68.63;;;20.43;;
27893;SDS011;15240;50.812;4.792;2023-11-21T07:54:47;65.73;;;20.87;;
27893;SDS011;15240;50.812;4.792;2023-11-21T07:57:13;67.97;;;21.33;;
27893;SDS011;15240;50.812;4.792;2023-11-21T07:59:40;61.17;;;19.77;;
27893;SDS011;15240;50.812;4.792;2023-11-21T08:02:06;68.97;;;20.13;;
27893;SDS011;15240;50.812;4.792;2023-11-21T08:04:32;64.97;;;20.60;;
27893;SDS011;15240;50.812;4.792;2023-11-21T08:07:00;60.97;;;19.77;;
27893;SDS011;15240;50.812;4.792;2023-11-21T08:09:26;48.53;;;17.10;;
27893;SDS011;15240;50.812;4.792;2023-11-21T08:11:53;46.27;;;16.93;;
27893;SDS011;15240;50.812;4.792;2023-11-21T08:14:19;61.33;;;19.57;;
27893;SDS011;15240;50.812;4.792;2023-11-21T08:16:45;51.53;;;18.53;;
27893;SDS011;15240;50.812;4.792;2023-11-21T08:19:12;50.63;;;18.50;;
27893;SDS011;15240;50.812;4.792;2023-11-21T08:21:38;56.37;;;17.33;;
27893;SDS011;15240;50.812;4.792;2023-11-21T08:24:07;64.27;;;20.13;;
27893;SDS011;15240;50.812;4.792;2023-11-21T08:26:36;59.70;;;19.70;;
27893;SDS011;15240;50.812;4.792;2023-11-21T08:29:03;52.47;;;18.40;;
27893;SDS011;15240;50.812;4.792;2023-11-21T08:31:32;62.83;;;20.37;;
27893;SDS011;15240;50.812;4.792;2023-11-21T08:33:58;64.57;;;20.77;;
27893;SDS011;15240;50.812;4.792;2023-11-21T08:36:27;60.37;;;19.70;;
27893;SDS011;15240;50.812;4.792;2023-11-21T08:38:53;59.23;;;20.37;;
27893;SDS011;15240;50.812;4.792;2023-11-21T08:41:19;69.50;;;22.53;;
27893;SDS011;15240;50.812;4.792;2023-11-21T08:43:51;74.53;;;23.77;;
27893;SDS011;15240;50.812;4.792;2023-11-21T08:46:20;76.10;;;24.80;;
27893;SDS011;15240;50.812;4.792;2023-11-21T08:48:46;69.83;;;23.33;;
27893;SDS011;15240;50.812;4.792;2023-11-21T08:51:12;74.97;;;24.60;;
27893;SDS011;15240;50.812;4.792;2023-11-21T08:53:39;69.77;;;24.30;;
27893;SDS011;15240;50.812;4.792;2023-11-21T08:56:05;64.27;;;24.27;;
27893;SDS011;15240;50.812;4.792;2023-11-21T08:58:32;81.13;;;26.17;;
27893;SDS011;15240;50.812;4.792;2023-11-21T09:00:58;73.97;;;25.87;;
27893;SDS011;15240;50.812;4.792;2023-11-21T09:03:24;75.70;;;25.67;;
27893;SDS011;15240;50.812;4.792;2023-11-21T09:05:51;75.03;;;26.40;;
27893;SDS011;15240;50.812;4.792;2023-11-21T09:08:17;82.63;;;27.63;;
27893;SDS011;15240;50.812;4.792;2023-11-21T09:10:43;75.90;;;27.57;;
27893;SDS011;15240;50.812;4.792;2023-11-21T09:13:12;82.30;;;30.13;;
27893;SDS011;15240;50.812;4.792;2023-11-21T09:15:38;76.33;;;28.23;;
27893;SDS011;15240;50.812;4.792;2023-11-21T09:18:05;87.17;;;29.30;;
27893;SDS011;15240;50.812;4.792;2023-11-21T09:20:31;85.47;;;30.23;;
27893;SDS011;15240;50.812;4.792;2023-11-21T09:22:57;85.93;;;30.80;;
27893;SDS011;15240;50.812;4.792;2023-11-21T09:25:23;85.63;;;31.23;;
27893;SDS011;15240;50.812;4.792;2023-11-21T09:27:49;81.30;;;30.13;;
27893;SDS011;15240;50.812;4.792;2023-11-21T09:30:16;82.50;;;30.03;;
27893;SDS011;15240;50.812;4.792;2023-11-21T09:32:42;75.57;;;30.20;;
27893;SDS011;15240;50.812;4.792;2023-11-21T09:35:10;93.17;;;29.73;;
27893;SDS011;15240;50.812;4.792;2023-11-21T09:37:39;88.20;;;30.00;;
27893;SDS011;15240;50.812;4.792;2023-11-21T09:40:10;73.13;;;28.60;;
27893;SDS011;15240;50.812;4.792;2023-11-21T09:43:05;86.47;;;30.37;;
27893;SDS011;15240;50.812;4.792;2023-11-21T09:45:39;86.53;;;29.93;;
27893;SDS011;15240;50.812;4.792;2023-11-21T09:48:05;83.03;;;29.87;;
27893;SDS011;15240;50.812;4.792;2023-11-21T09:50:32;83.93;;;30.40;;
27893;SDS011;15240;50.812;4.792;2023-11-21T09:55:32;85.97;;;31.03;;
27893;SDS011;15240;50.812;4.792;2023-11-21T09:58:02;89.60;;;31.97;;
27893;SDS011;15240;50.812;4.792;2023-11-21T10:00:28;83.17;;;31.60;;
27893;SDS011;15240;50.812;4.792;2023-11-21T10:02:58;84.00;;;31.27;;
27893;SDS011;15240;50.812;4.792;2023-11-21T10:05:24;82.10;;;31.70;;
27893;SDS011;15240;50.812;4.792;2023-11-21T10:07:50;84.87;;;31.20;;
27893;SDS011;15240;50.812;4.792;2023-11-21T10:10:18;88.17;;;32.97;;
27893;SDS011;15240;50.812;4.792;2023-11-21T10:12:50;87.17;;;33.00;;
27893;SDS011;15240;50.812;4.792;2023-11-21T10:15:18;81.60;;;31.43;;
27893;SDS011;15240;50.812;4.792;2023-11-21T10:17:48;96.20;;;34.00;;
27893;SDS011;15240;50.812;4.792;2023-11-21T10:20:14;91.93;;;33.67;;
27893;SDS011;15240;50.812;4.792;2023-11-21T10:22:41;92.30;;;33.97;;
27893;SDS011;15240;50.812;4.792;2023-11-21T10:25:10;90.33;;;33.37;;
27893;SDS011;15240;50.812;4.792;2023-11-21T10:27:39;89.47;;;32.80;;
27893;SDS011;15240;50.812;4.792;2023-11-21T10:30:06;74.50;;;31.67;;
27893;SDS011;15240;50.812;4.792;2023-11-21T10:32:37;74.13;;;30.53;;
27893;SDS011;15240;50.812;4.792;2023-11-21T10:35:03;73.00;;;29.73;;
27893;SDS011;15240;50.812;4.792;2023-11-21T10:37:35;73.17;;;29.60;;
27893;SDS011;15240;50.812;4.792;2023-11-21T10:40:05;71.27;;;28.77;;
27893;SDS011;15240;50.812;4.792;2023-11-21T10:42:32;75.27;;;29.63;;
27893;SDS011;15240;50.812;4.792;2023-11-21T10:44:58;64.33;;;27.20;;
27893;SDS011;15240;50.812;4.792;2023-11-21T10:47:25;57.93;;;26.93;;
27893;SDS011;15240;50.812;4.792;2023-11-21T10:49:51;62.57;;;25.93;;
27893;SDS011;15240;50.812;4.792;2023-11-21T10:52:20;58.87;;;26.13;;
27893;SDS011;15240;50.812;4.792;2023-11-21T10:54:47;58.67;;;25.73;;
27893;SDS011;15240;50.812;4.792;2023-11-21T10:57:17;61.03;;;24.73;;
27893;SDS011;15240;50.812;4.792;2023-11-21T10:59:46;62.70;;;26.47;;
27893;SDS011;15240;50.812;4.792;2023-11-21T11:02:19;63.63;;;25.77;;
27893;SDS011;15240;50.812;4.792;2023-11-21T11:04:48;65.93;;;26.87;;
27893;SDS011;15240;50.812;4.792;2023-11-21T11:07:14;70.10;;;26.83;;
27893;SDS011;15240;50.812;4.792;2023-11-21T11:09:41;68.50;;;26.43;;
27893;SDS011;15240;50.812;4.792;2023-11-21T11:12:09;67.37;;;26.27;;
27893;SDS011;15240;50.812;4.792;2023-11-21T11:14:35;70.73;;;27.47;;
27893;SDS011;15240;50.812;4.792;2023-11-21T11:17:01;71.13;;;27.50;;
27893;SDS011;15240;50.812;4.792;2023-11-21T11:19:30;67.70;;;27.57;;
27893;SDS011;15240;50.812;4.792;2023-11-21T11:22:03;67.47;;;28.10;;
27893;SDS011;15240;50.812;4.792;2023-11-21T11:27:36;65.70;;;26.30;;
27893;SDS011;15240;50.812;4.792;2023-11-21T11:30:11;64.03;;;27.53;;
27893;SDS011;15240;50.812;4.792;2023-11-21T11:35:18;66.77;;;27.17;;
27893;SDS011;15240;50.812;4.792;2023-11-21T11:37:46;64.17;;;26.80;;
27893;SDS011;15240;50.812;4.792;2023-11-21T11:40:12;60.20;;;26.03;;
27893;SDS011;15240;50.812;4.792;2023-11-21T11:42:44;55.70;;;25.70;;
27893;SDS011;15240;50.812;4.792;2023-11-21T11:45:21;65.10;;;26.30;;
27893;SDS011;15240;50.812;4.792;2023-11-21T11:47:47;61.83;;;26.20;;
27893;SDS011;15240;50.812;4.792;2023-11-21T11:50:14;58.57;;;25.90;;
27893;SDS011;15240;50.812;4.792;2023-11-21T11:52:45;59.27;;;25.20;;
27893;SDS011;15240;50.812;4.792;2023-11-21T11:55:12;55.33;;;24.87;;
27893;SDS011;15240;50.812;4.792;2023-11-21T11:57:40;58.13;;;25.27;;
27893;SDS011;15240;50.812;4.792;2023-11-21T12:02:45;56.27;;;25.50;;
27893;SDS011;15240;50.812;4.792;2023-11-21T12:05:12;57.60;;;25.33;;
27893;SDS011;15240;50.812;4.792;2023-11-21T12:07:49;57.43;;;25.90;;
27893;SDS011;15240;50.812;4.792;2023-11-21T12:10:18;59.43;;;26.17;;
27893;SDS011;15240;50.812;4.792;2023-11-21T12:12:48;59.10;;;27.00;;
27893;SDS011;15240;50.812;4.792;2023-11-21T12:15:15;53.57;;;26.37;;
27893;SDS011;15240;50.812;4.792;2023-11-21T12:17:42;50.50;;;24.70;;
27893;SDS011;15240;50.812;4.792;2023-11-21T12:20:08;45.20;;;22.27;;
27893;SDS011;15240;50.812;4.792;2023-11-21T12:25:14;46.57;;;22.67;;
27893;SDS011;15240;50.812;4.792;2023-11-21T12:27:50;56.07;;;23.07;;
27893;SDS011;15240;50.812;4.792;2023-11-21T12:30:17;43.50;;;22.03;;
27893;SDS011;15240;50.812;4.792;2023-11-21T12:32:44;39.13;;;20.83;;
27893;SDS011;15240;50.812;4.792;2023-11-21T12:35:11;41.37;;;20.50;;
27893;SDS011;15240;50.812;4.792;2023-11-21T12:37:38;34.77;;;19.33;;
27893;SDS011;15240;50.812;4.792;2023-11-21T12:40:05;33.40;;;18.07;;
27893;SDS011;15240;50.812;4.792;2023-11-21T12:42:32;36.70;;;18.20;;
27893;SDS011;15240;50.812;4.792;2023-11-21T12:45:18;34.77;;;17.37;;
27893;SDS011;15240;50.812;4.792;2023-11-21T12:47:45;31.67;;;17.07;;
27893;SDS011;15240;50.812;4.792;2023-11-21T12:50:12;29.53;;;16.33;;
27893;SDS011;15240;50.812;4.792;2023-11-21T12:52:43;27.43;;;15.10;;
27893;SDS011;15240;50.812;4.792;2023-11-21T12:55:13;29.00;;;15.97;;
27893;SDS011;15240;50.812;4.792;2023-11-21T12:57:44;28.67;;;16.10;;
27893;SDS011;15240;50.812;4.792;2023-11-21T13:00:11;29.73;;;15.03;;
27893;SDS011;15240;50.812;4.792;2023-11-21T13:02:43;27.23;;;15.47;;
27893;SDS011;15240;50.812;4.792;2023-11-21T13:05:10;28.37;;;16.17;;
27893;SDS011;15240;50.812;4.792;2023-11-21T13:07:46;22.50;;;13.90;;
27893;SDS011;15240;50.812;4.792;2023-11-21T13:10:13;23.93;;;13.70;;
27893;SDS011;15240;50.812;4.792;2023-11-21T13:12:43;24.90;;;14.83;;
27893;SDS011;15240;50.812;4.792;2023-11-21T13:15:13;24.57;;;13.83;;
27893;SDS011;15240;50.812;4.792;2023-11-21T13:17:43;20.27;;;12.53;;
27893;SDS011;15240;50.812;4.792;2023-11-21T13:20:12;18.37;;;11.37;;
27893;SDS011;15240;50.812;4.792;2023-11-21T13:22:49;22.63;;;12.43;;
27893;SDS011;15240;50.812;4.792;2023-11-21T13:25:17;20.00;;;12.07;;
27893;SDS011;15240;50.812;4.792;2023-11-21T13:27:46;21.63;;;12.03;;
27893;SDS011;15240;50.812;4.792;2023-11-21T13:30:14;19.43;;;12.30;;
27893;SDS011;15240;50.812;4.792;2023-11-21T13:32:41;23.37;;;11.97;;
27893;SDS011;15240;50.812;4.792;2023-11-21T13:35:07;24.47;;;12.70;;
27893;SDS011;15240;50.812;4.792;2023-11-21T13:37:46;21.60;;;12.23;;
27893;SDS011;15240;50.812;4.792;2023-11-21T13:40:18;20.07;;;11.80;;
27893;SDS011;15240;50.812;4.792;2023-11-21T13:42:47;21.20;;;12.10;;
27893;SDS011;15240;50.812;4.792;2023-11-21T13:45:15;20.33;;;12.67;;
27893;SDS011;15240;50.812;4.792;2023-11-21T13:47:43;21.20;;;13.03;;
27893;SDS011;15240;50.812;4.792;2023-11-21T13:50:10;22.20;;;13.20;;
27893;SDS011;15240;50.812;4.792;2023-11-21T13:52:48;45.30;;;25.67;;
27893;SDS011;15240;50.812;4.792;2023-11-21T13:55:16;33.83;;;19.20;;
27893;SDS011;15240;50.812;4.792;2023-11-21T13:57:43;50.63;;;28.77;;
27893;SDS011;15240;50.812;4.792;2023-11-21T14:00:12;33.37;;;19.00;;
27893;SDS011;15240;50.812;4.792;2023-11-21T14:02:58;60.07;;;33.10;;
27893;SDS011;15240;50.812;4.792;2023-11-21T14:05:26;38.57;;;22.87;;
27893;SDS011;15240;50.812;4.792;2023-11-21T14:07:57;41.53;;;25.40;;
27893;SDS011;15240;50.812;4.792;2023-11-21T14:10:29;28.70;;;17.50;;
27893;SDS011;15240;50.812;4.792;2023-11-21T14:13:08;21.03;;;12.63;;
27893;SDS011;15240;50.812;4.792;2023-11-21T14:15:41;20.77;;;12.00;;
27893;SDS011;15240;50.812;4.792;2023-11-21T14:18:10;21.13;;;11.23;;
27893;SDS011;15240;50.812;4.792;2023-11-21T14:20:37;21.13;;;11.40;;
27893;SDS011;15240;50.812;4.792;2023-11-21T14:23:04;22.47;;;11.83;;
27893;SDS011;15240;50.812;4.792;2023-11-21T14:25:32;18.30;;;10.40;;
27893;SDS011;15240;50.812;4.792;2023-11-21T14:27:58;16.63;;;9.53;;
27893;SDS011;15240;50.812;4.792;2023-11-21T14:30:24;16.80;;;10.27;;
27893;SDS011;15240;50.812;4.792;2023-11-21T14:32:52;17.90;;;9.87;;